Time;durP1;ratioP1;P1;durP2;ratioP2;P2;SDS_P1;SDS_P2;PMS_P1;PMS_P2;Temp;Humidity;BMP_temperature;BMP_pressure;BME280_temperature;BME280_humidity;BME280_pressure;Samples;Min_cycle;Max_cycle;Signal;HPM_P1;HPM_P2
2021/11/20 00:00:44;;;;;;;7.08;6.37;;;;;;;7.11;100.00;98400.27;1677490;85;21027;-71
2021/11/20 00:03:11;;;;;;;11.18;6.85;;;;;;;7.13;100.00;98391.75;1684119;85;21153;-73
2021/11/20 00:05:44;;;;;;;7.58;6.60;;;;;;;7.14;100.00;98388.70;1679033;85;20931;-72
2021/11/20 00:08:11;;;;;;;7.42;6.37;;;;;;;7.16;100.00;98389.19;1677751;85;20927;-72
2021/11/20 00:10:41;;;;;;;8.08;6.72;;;;;;;7.16;100.00;98385.66;1655378;85;20938;-73
2021/11/20 00:13:08;;;;;;;8.40;6.65;;;;;;;7.16;100.00;98386.45;1681832;85;20965;-73
2021/11/20 00:15:41;;;;;;;6.70;6.00;;;;;;;7.16;100.00;98393.28;1659391;85;20891;-73
2021/11/20 00:18:10;;;;;;;7.95;6.58;;;;;;;7.18;100.00;98384.77;1679035;85;25491;-73
2021/11/20 00:20:45;;;;;;;8.03;6.80;;;;;;;7.19;100.00;98387.18;1680927;85;20997;-74
2021/11/20 00:23:10;;;;;;;10.25;5.95;;;;;;;7.20;100.00;98389.34;1678151;85;20914;-73
2021/11/20 00:25:47;;;;;;;8.40;7.08;;;;;;;7.20;100.00;98377.06;1681208;85;20952;-74
2021/11/20 00:28:17;;;;;;;9.63;6.60;;;;;;;7.22;100.00;98373.45;1684837;85;21584;-72
2021/11/20 00:30:53;;;;;;;;;;;;;;;7.24;100.00;98365.74;1691148;84;21534;-73
2021/11/20 00:33:10;;;;;;;15.25;7.10;;;;;;;7.25;100.00;98361.89;1686619;84;20147;-71
2021/11/20 00:35:46;;;;;;;7.20;6.20;;;;;;;7.27;100.00;98356.91;1687931;85;20937;-73
2021/11/20 00:38:15;;;;;;;11.45;7.00;;;;;;;7.29;100.00;98364.22;1689032;84;20984;-73
2021/11/20 00:40:51;;;;;;;8.30;6.60;;;;;;;7.31;100.00;98356.50;1687886;83;21835;-73
2021/11/20 00:43:22;;;;;;;10.05;6.08;;;;;;;7.32;100.00;98352.66;1667941;85;20869;-71
2021/11/20 00:45:49;;;;;;;8.28;5.70;;;;;;;7.36;100.00;98354.17;1685896;84;20897;-71
2021/11/20 00:48:23;;;;;;;6.95;5.25;;;;;;;7.39;100.00;98340.67;1688201;85;21007;-71
2021/11/20 00:51:01;;;;;;;8.73;6.37;;;;;;;7.42;100.00;98342.77;1687901;85;21028;-71
2021/11/20 00:53:32;;;;;;;9.35;6.17;;;;;;;7.47;100.00;98341.79;1682014;84;21408;-72
2021/11/20 00:56:05;;;;;;;8.93;6.22;;;;;;;7.51;100.00;98327.13;1666837;84;21015;-71
2021/11/20 00:58:40;;;;;;;7.53;6.30;;;;;;;7.56;100.00;98323.42;1687698;85;20956;-72
2021/11/20 01:01:14;;;;;;;8.63;7.03;;;;;;;7.60;100.00;98315.63;1689432;84;20908;-71
2021/11/20 01:03:44;;;;;;;6.80;5.97;;;;;;;7.63;100.00;98317.70;1680277;85;21622;-73
2021/11/20 01:06:14;;;;;;;8.50;6.35;;;;;;;7.70;100.00;98315.03;1684284;84;21157;-72
2021/11/20 01:08:49;;;;;;;13.00;6.50;;;;;;;7.73;100.00;98306.98;1668678;85;20940;-74
2021/11/20 01:11:26;;;;;;;8.70;6.10;;;;;;;7.79;100.00;98303.52;1688553;85;21405;-72
2021/11/20 01:14:00;;;;;;;7.80;6.53;;;;;;;7.82;100.00;98300.93;1684440;84;21436;-72
2021/11/20 01:16:29;;;;;;;8.38;6.97;;;;;;;7.88;100.00;98302.35;1683155;85;21444;-72
2021/11/20 01:19:01;;;;;;;10.45;6.97;;;;;;;7.92;100.00;98301.13;1684207;85;21810;-72
2021/11/20 01:21:51;;;;;;;7.15;6.37;;;;;;;7.97;100.00;98287.28;1690908;84;20956;-72
2021/11/20 01:24:21;;;;;;;10.33;7.53;;;;;;;8.02;100.00;98280.84;1684548;84;21016;-73
2021/11/20 01:26:50;;;;;;;7.92;6.40;;;;;;;8.06;100.00;98282.58;1684306;84;20921;-73
2021/11/20 01:29:21;;;;;;;7.95;7.10;;;;;;;8.10;100.00;98279.96;1687681;84;20977;-72
2021/11/20 01:31:54;;;;;;;10.45;7.22;;;;;;;8.13;100.00;98269.73;1687816;85;21169;-72
2021/11/20 01:34:23;;;;;;;9.63;7.78;;;;;;;8.19;100.00;98273.31;1667050;85;21012;-71
2021/11/20 01:36:53;;;;;;;7.80;7.00;;;;;;;8.22;100.00;98269.12;1688017;85;20941;-72
2021/11/20 01:39:31;;;;;;;10.95;7.80;;;;;;;8.26;100.00;98256.39;1690164;84;21546;-72
2021/11/20 01:42:20;;;;;;;7.75;6.90;;;;;;;8.29;100.00;98258.46;1687164;84;21585;-73
2021/11/20 01:45:07;;;;;;;12.63;7.25;;;;;;;8.32;100.00;98250.96;1667303;85;21563;-72
2021/11/20 01:47:59;;;;;;;7.78;6.42;;;;;;;8.34;100.00;98247.36;1686543;85;20948;-70
2021/11/20 01:50:39;;;;;;;9.00;6.95;;;;;;;8.37;100.00;98245.33;1687933;84;21492;-71
2021/11/20 01:53:19;;;;;;;8.53;6.65;;;;;;;8.39;100.00;98232.13;1689928;84;21724;-72
2021/11/20 01:56:01;;;;;;;7.80;6.70;;;;;;;8.42;100.00;98225.99;1633252;87;20930;-71
2021/11/20 01:58:53;;;;;;;7.50;5.80;;;;;;;8.46;100.00;98225.56;1687084;85;21655;-72
2021/11/20 02:01:44;;;;;;;7.12;5.42;;;;;;;8.51;100.00;98214.42;1641001;85;20897;-72
2021/11/20 02:04:46;;;;;;;5.87;5.03;;;;;;;8.52;100.00;98210.55;1654200;86;21028;-72
2021/11/20 02:07:30;;;;;;;7.05;5.28;;;;;;;8.55;100.00;98207.15;1687887;85;20968;-72
2021/11/20 02:10:25;;;;;;;6.70;5.30;;;;;;;8.59;100.00;98199.07;1691358;84;20948;-72
2021/11/20 02:12:57;;;;;;;9.73;6.05;;;;;;;8.59;100.00;98199.88;1684432;84;21849;-71
2021/11/20 02:15:40;;;;;;;6.62;4.70;;;;;;;8.62;100.00;98187.46;1669127;84;21097;-71
2021/11/20 02:18:13;;;;;;;9.03;4.58;;;;;;;8.63;100.00;98201.38;1687890;85;20956;-72
2021/11/20 02:21:01;;;;;;;4.28;3.83;;;;;;;8.66;100.00;98198.53;1687429;85;21435;-71
2021/11/20 02:23:29;;;;;;;4.90;3.92;;;;;;;8.67;100.00;98189.16;1669819;84;20936;-71
2021/11/20 02:26:00;;;;;;;6.28;3.98;;;;;;;8.69;100.00;98193.16;1691176;84;20869;-72
2021/11/20 02:28:52;;;;;;;5.10;3.15;;;;;;;8.71;100.00;98192.25;1653060;85;20908;-73
2021/11/20 02:31:29;;;;;;;6.05;3.80;;;;;;;8.73;100.00;98198.19;1656016;84;21479;-73
2021/11/20 02:34:03;;;;;;;5.75;3.85;;;;;;;8.75;100.00;98187.71;1679192;85;21016;-73
2021/11/20 02:36:37;;;;;;;4.62;3.87;;;;;;;8.77;100.00;98193.65;1667774;84;20995;-72
2021/11/20 02:39:13;;;;;;;4.83;3.40;;;;;;;8.78;100.00;98191.71;1688306;84;21165;-72
2021/11/20 02:41:41;;;;;;;5.87;3.17;;;;;;;8.80;100.00;98179.86;1687860;85;21420;-72
2021/11/20 02:44:19;;;;;;;4.10;3.10;;;;;;;8.81;100.00;98191.04;1684012;84;21031;-72
2021/11/20 02:46:54;;;;;;;5.53;3.58;;;;;;;8.82;100.00;98189.91;1646119;85;20873;-72
2021/11/20 02:49:24;;;;;;;6.35;4.12;;;;;;;8.82;100.00;98181.70;1688060;84;20936;-72
2021/11/20 02:52:05;;;;;;;4.72;3.22;;;;;;;8.83;100.00;98169.61;1668275;84;21040;-72
2021/11/20 02:54:35;;;;;;;5.08;3.00;;;;;;;8.83;100.00;98184.09;1687911;85;20921;-72
2021/11/20 02:57:12;;;;;;;3.30;2.77;;;;;;;8.83;100.00;98169.05;1681623;84;20953;-72
2021/11/20 02:59:48;;;;;;;5.15;3.65;;;;;;;8.85;100.00;98174.98;1686079;84;20963;-73
2021/11/20 03:02:23;;;;;;;3.95;2.85;;;;;;;8.85;100.00;98173.61;1663447;84;21479;-71
2021/11/20 03:04:50;;;;;;;4.20;3.20;;;;;;;8.86;100.00;98178.52;1687884;85;21820;-73
2021/11/20 03:07:25;;;;;;;4.08;3.02;;;;;;;8.86;100.00;98182.62;1692523;84;21569;-71
2021/11/20 03:09:54;;;;;;;3.72;2.60;;;;;;;8.86;100.00;98182.05;1687730;85;20957;-72
2021/11/20 03:12:25;;;;;;;3.17;2.70;;;;;;;8.86;100.00;98173.05;1686786;84;21000;-71
2021/11/20 03:14:53;;;;;;;5.25;2.87;;;;;;;8.87;100.00;98171.91;1687251;84;20952;-72
2021/11/20 03:17:26;;;;;;;3.27;2.70;;;;;;;8.88;100.00;98173.50;1687983;84;21171;-72
2021/11/20 03:19:54;;;;;;;4.93;2.73;;;;;;;8.88;100.00;98166.66;1688118;85;21479;-73
2021/11/20 03:22:33;;;;;;;3.80;2.83;;;;;;;8.89;100.00;98175.10;1690466;84;21070;-72
2021/11/20 03:25:07;;;;;;;4.83;2.70;;;;;;;8.89;100.00;98177.84;1687762;85;21052;-69
2021/11/20 03:27:39;;;;;;;3.52;2.50;;;;;;;8.89;100.00;98173.73;1649684;85;21040;-69
2021/11/20 03:30:10;;;;;;;2.50;2.10;;;;;;;8.90;100.00;98180.81;1662623;85;39511;-69
2021/11/20 03:32:41;;;;;;;2.72;2.08;;;;;;;8.90;100.00;98178.87;1687138;85;21001;-69
2021/11/20 03:35:14;;;;;;;4.62;1.80;;;;;;;8.91;100.00;98181.84;1685603;84;20907;-70
2021/11/20 03:37:43;;;;;;;2.60;1.52;;;;;;;8.91;100.00;98188.69;1691898;84;21035;-69
2021/11/20 03:40:11;;;;;;;3.05;1.85;;;;;;;8.92;100.00;98194.39;1688741;84;20909;-71
2021/11/20 03:42:45;;;;;;;1.70;1.60;;;;;;;8.93;100.00;98197.92;1680536;84;21418;-71
2021/11/20 03:45:19;;;;;;;4.47;2.25;;;;;;;8.91;100.00;98196.89;1686951;85;20988;-73
2021/11/20 03:47:48;;;;;;;2.87;1.92;;;;;;;8.90;100.00;98189.82;1689003;84;20908;-70
2021/11/20 03:50:19;;;;;;;4.58;2.20;;;;;;;8.89;100.00;98194.27;1689991;84;20960;-70
2021/11/20 03:52:51;;;;;;;3.37;2.12;;;;;;;8.88;100.00;98200.30;1668234;85;21499;-71
2021/11/20 03:55:23;;;;;;;3.25;2.33;;;;;;;8.86;100.00;98176.58;1687776;85;21151;-71
2021/11/20 03:57:55;;;;;;;2.15;1.90;;;;;;;8.87;100.00;98189.70;1687860;84;20933;-70
2021/11/20 04:00:28;;;;;;;4.15;2.50;;;;;;;8.87;100.00;98174.08;1679317;85;21487;-72
2021/11/20 04:03:01;;;;;;;3.87;2.35;;;;;;;8.88;100.00;98180.34;1683700;85;21456;-72
2021/11/20 04:05:33;;;;;;;3.15;1.95;;;;;;;8.89;100.00;98184.69;1685667;84;20866;-70
2021/11/20 04:08:11;;;;;;;2.98;2.20;;;;;;;8.88;100.00;98174.30;1688572;84;21173;-73
2021/11/20 04:10:41;;;;;;;4.00;2.40;;;;;;;8.88;100.00;98181.15;1688108;84;20905;-73
2021/11/20 04:13:10;;;;;;;5.67;2.20;;;;;;;8.89;100.00;98188.78;1687604;85;20937;-73
2021/11/20 04:15:38;;;;;;;4.80;2.10;;;;;;;8.89;100.00;98186.85;1687842;85;20920;-71
2021/11/20 04:18:12;;;;;;;3.67;2.20;;;;;;;8.90;100.00;98180.23;1687974;85;20960;-72
2021/11/20 04:20:41;;;;;;;2.40;1.92;;;;;;;8.90;100.00;98180.81;1687913;85;21171;-72
2021/11/20 04:23:14;;;;;;;1.52;1.42;;;;;;;8.89;100.00;98180.58;1686439;84;20945;-72
2021/11/20 04:25:47;;;;;;;2.50;1.65;;;;;;;8.90;100.00;98178.08;1687462;85;20990;-71
2021/11/20 04:28:22;;;;;;;2.17;1.75;;;;;;;8.91;100.00;98184.58;1687981;85;21011;-73
2021/11/20 04:30:59;;;;;;;4.55;2.27;;;;;;;8.91;100.00;98181.05;1686650;84;21420;-72
2021/11/20 04:33:28;;;;;;;2.52;2.17;;;;;;;8.90;100.00;98185.72;1661188;84;21431;-72
2021/11/20 04:36:00;;;;;;;3.42;2.37;;;;;;;8.90;100.00;98184.34;1683910;84;21012;-70
2021/11/20 04:38:32;;;;;;;2.37;2.17;;;;;;;8.90;100.00;98176.70;1668165;85;21003;-71
2021/11/20 04:41:03;;;;;;;3.92;2.42;;;;;;;8.89;100.00;98178.64;1688909;84;21451;-71
2021/11/20 04:43:35;;;;;;;4.85;2.67;;;;;;;8.90;100.00;98183.55;1665972;84;21505;-70
2021/11/20 04:46:04;;;;;;;4.78;2.40;;;;;;;8.89;100.00;98178.64;1688210;85;22032;-71
2021/11/20 04:48:38;;;;;;;4.33;2.83;;;;;;;8.90;100.00;98178.08;1691335;84;21000;-71
2021/11/20 04:51:08;;;;;;;5.20;2.55;;;;;;;8.91;100.00;98185.14;1685657;84;20889;-73
2021/11/20 04:53:39;;;;;;;4.10;2.72;;;;;;;8.89;100.00;98180.02;1687783;85;21080;-72
2021/11/20 04:56:15;;;;;;;4.95;2.83;;;;;;;8.92;100.00;98180.70;1688148;85;21523;-73
2021/11/20 04:58:43;;;;;;;3.87;2.58;;;;;;;8.92;100.00;98189.48;1688258;85;21136;-72
2021/11/20 05:01:14;;;;;;;3.42;2.60;;;;;;;8.93;100.00;98184.23;1687788;85;20909;-73
2021/11/20 05:03:51;;;;;;;3.17;2.77;;;;;;;8.92;100.00;98186.18;1657913;85;20969;-73
2021/11/20 05:06:27;;;;;;;5.03;3.10;;;;;;;8.93;100.00;98189.72;1646311;85;21920;-70
2021/11/20 05:08:59;;;;;;;4.37;2.72;;;;;;;8.93;100.00;98181.50;1687833;85;20970;-71
2021/11/20 05:11:35;;;;;;;3.72;2.35;;;;;;;8.93;100.00;98190.52;1687944;85;21177;-71
2021/11/20 05:14:10;;;;;;;6.08;2.90;;;;;;;8.95;100.00;98190.17;1650745;84;21471;-71
2021/11/20 05:16:40;;;;;;;6.10;3.37;;;;;;;8.97;100.00;98202.95;1686732;85;21008;-69
2021/11/20 05:19:12;;;;;;;3.55;2.47;;;;;;;8.94;100.00;98194.85;1683815;84;20913;-67
2021/11/20 05:21:47;;;;;;;2.70;2.45;;;;;;;8.97;100.00;98211.17;1688728;84;21482;-67
2021/11/20 05:24:23;;;;;;;4.75;2.67;;;;;;;8.97;100.00;98209.00;1687800;85;21170;-70
2021/11/20 05:26:53;;;;;;;6.08;2.67;;;;;;;8.96;100.00;98219.15;1686512;84;21062;-72
2021/11/20 05:29:39;;;;;;;4.22;2.20;;;;;;;8.96;100.00;98218.34;1652791;85;20996;-72
2021/11/20 05:32:02;;;;;;;3.50;2.75;;;;;;;8.96;100.00;98228.73;1659432;86;21476;-67
2021/11/20 05:34:33;;;;;;;5.87;3.05;;;;;;;8.97;100.00;98227.59;1660214;86;20908;-71
2021/11/20 05:37:04;;;;;;;3.40;2.33;;;;;;;8.98;100.00;98240.14;1641759;85;20947;-71
2021/11/20 05:39:35;;;;;;;4.70;2.67;;;;;;;8.97;100.00;98237.17;1654373;86;20916;-68
2021/11/20 05:42:06;;;;;;;5.12;2.50;;;;;;;8.98;100.00;98240.14;1610224;88;21020;-68
2021/11/20 05:44:43;;;;;;;5.22;3.00;;;;;;;9.01;100.00;98247.67;1655024;86;20932;-68
2021/11/20 05:47:17;;;;;;;4.67;2.75;;;;;;;9.03;100.00;98242.67;1660070;86;21043;-68
2021/11/20 05:49:49;;;;;;;5.22;3.10;;;;;;;9.04;100.00;98244.27;1659827;86;21187;-69
2021/11/20 05:52:23;;;;;;;5.08;2.80;;;;;;;9.05;100.00;98249.17;1674043;85;21051;-67
2021/11/20 05:54:54;;;;;;;7.35;3.33;;;;;;;9.03;100.00;98250.08;1642191;86;20956;-67
2021/11/20 05:57:25;;;;;;;6.37;3.05;;;;;;;9.04;100.00;98264.00;1659958;86;21008;-67
2021/11/20 06:00:00;;;;;;;10.60;2.58;;;;;;;9.04;100.00;98268.11;1640644;86;20998;-67
2021/11/20 06:02:31;;;;;;;5.60;2.60;;;;;;;9.05;100.00;98259.55;1659777;86;21196;-67
2021/11/20 06:05:05;;;;;;;5.90;2.95;;;;;;;9.05;100.00;98256.81;1642660;86;21019;-72
2021/11/20 06:07:36;;;;;;;3.80;2.75;;;;;;;9.04;100.00;98251.68;1657980;86;20916;-70
2021/11/20 06:10:07;;;;;;;5.05;2.83;;;;;;;9.04;100.00;98261.26;1649297;86;20948;-68
2021/11/20 06:12:34;;;;;;;5.05;2.50;;;;;;;9.06;100.00;98262.52;1657937;86;21015;-69
2021/11/20 06:15:10;;;;;;;6.17;2.67;;;;;;;9.09;100.00;98252.84;1660382;86;21164;-69
2021/11/20 06:17:43;;;;;;;7.10;2.98;;;;;;;9.09;100.00;98273.38;1657623;86;20960;-68
2021/11/20 06:20:14;;;;;;;6.80;2.95;;;;;;;9.09;100.00;98270.06;1660295;86;21111;-69
2021/11/20 06:22:45;;;;;;;5.85;2.72;;;;;;;9.10;100.00;98264.83;1635381;86;21025;-68
2021/11/20 06:25:20;;;;;;;6.72;3.50;;;;;;;9.08;100.00;98258.88;1610877;89;21091;-68
2021/11/20 06:27:51;;;;;;;10.82;3.42;;;;;;;9.10;100.00;98263.45;1661260;85;21173;-68
2021/11/20 06:30:21;;;;;;;6.20;3.22;;;;;;;9.10;100.00;98256.61;1660151;86;20956;-68
2021/11/20 06:32:52;;;;;;;7.00;3.12;;;;;;;9.12;100.00;98265.28;1660077;86;20960;-68
2021/11/20 06:35:32;;;;;;;6.53;2.80;;;;;;;9.13;100.00;98273.73;1635317;85;20961;-68
2021/11/20 06:38:07;;;;;;;6.90;2.40;;;;;;;9.14;100.00;98254.80;1655940;86;21403;-68
2021/11/20 06:40:43;;;;;;;5.90;2.40;;;;;;;9.13;100.00;98266.89;1660355;85;21185;-68
2021/11/20 06:43:16;;;;;;;5.08;2.40;;;;;;;9.16;100.00;98260.73;1660023;86;20873;-68
2021/11/20 06:45:46;;;;;;;4.30;1.80;;;;;;;9.19;100.00;98261.44;1660157;86;21465;-68
2021/11/20 06:48:15;;;;;;;4.87;2.12;;;;;;;9.21;100.00;98283.00;1659904;86;21028;-69
2021/11/20 06:50:48;;;;;;;6.35;2.40;;;;;;;9.20;100.00;98273.19;1658996;86;21055;-69
2021/11/20 06:53:31;;;;;;;8.00;2.40;;;;;;;9.16;100.00;98273.06;1560247;92;21259;-69
2021/11/20 06:56:14;;;;;;;7.62;2.40;;;;;;;9.23;100.00;98283.47;1650166;85;21538;-69
2021/11/20 07:01:24;;;;;;;5.10;2.37;;;;;;;9.92;100.00;98267.00;1667520;84;21011;-68
2021/11/20 07:04:05;;;;;;;7.12;2.40;;;;;;;10.18;100.00;98267.23;1650365;86;21020;-67
2021/11/20 07:06:44;;;;;;;7.72;2.67;;;;;;;10.44;100.00;98261.38;1623941;88;21154;-68
2021/11/20 07:09:14;;;;;;;12.45;2.92;;;;;;;10.63;100.00;98256.08;1630181;88;20978;-67
2021/11/20 07:11:54;;;;;;;32.80;8.10;;;;;;;10.57;100.00;98256.88;1656676;86;21515;-67
2021/11/20 07:14:25;;;;;;;5.83;2.02;;;;;;;10.35;100.00;98260.16;1660257;86;21028;-67
2021/11/20 07:16:56;;;;;;;5.37;2.52;;;;;;;10.11;100.00;98254.66;1636230;85;20967;-67
2021/11/20 07:19:26;;;;;;;10.10;2.52;;;;;;;9.99;100.00;98251.92;1637133;87;21208;-67
2021/11/20 07:21:58;;;;;;;29.57;5.45;;;;;;;10.17;100.00;98262.31;1628927;87;21478;-67
2021/11/20 07:24:48;;;;;;;11.08;3.02;;;;;;;10.53;100.00;98261.47;1660017;86;20925;-67
2021/11/20 07:27:21;;;;;;;7.60;1.87;;;;;;;10.83;100.00;98255.67;1675634;85;21554;-67
2021/11/20 07:29:51;;;;;;;5.33;2.47;;;;;;;10.87;100.00;98266.98;1690023;84;20932;-67
2021/11/20 07:32:30;;;;;;;8.25;1.98;;;;;;;10.99;100.00;98268.86;1688052;85;21180;-67
2021/11/20 07:35:00;;;;;;;7.50;1.62;;;;;;;11.17;100.00;98269.36;1688251;85;20944;-67
2021/11/20 07:37:34;;;;;;;10.00;3.55;;;;;;;11.35;100.00;98283.59;1669097;84;21035;-67
2021/11/20 07:40:09;;;;;;;7.45;2.02;;;;;;;11.46;99.44;98264.86;1687369;84;21025;-68
2021/11/20 07:42:38;;;;;;;9.60;2.20;;;;;;;11.58;95.94;98269.46;1687033;85;21493;-67
2021/11/20 07:45:24;;;;;;;6.25;1.85;;;;;;;11.61;95.45;98278.95;1633154;87;21178;-68
2021/11/20 07:48:10;;;;;;;8.63;1.98;;;;;;;11.66;94.53;98275.94;1674925;85;20917;-66
2021/11/20 07:50:42;;;;;;;3.45;1.75;;;;;;;11.63;93.39;98271.95;1686071;84;20988;-67
2021/11/20 07:53:14;;;;;;;4.30;2.02;;;;;;;11.46;94.57;98259.95;1686431;84;21009;-67
2021/11/20 07:55:47;;;;;;;26.27;4.30;;;;;;;11.17;94.63;98264.66;1688085;85;21499;-68
2021/11/20 07:58:20;;;;;;;15.25;3.58;;;;;;;11.07;98.47;98272.03;1687776;84;21860;-67
2021/11/20 08:00:50;;;;;;;6.58;2.02;;;;;;;11.09;99.48;98268.94;1689764;84;20952;-66
2021/11/20 08:03:20;;;;;;;34.53;5.33;;;;;;;11.03;95.07;98273.08;1683723;85;20953;-67
2021/11/20 08:05:50;;;;;;;8.85;2.25;;;;;;;10.89;99.30;98252.33;1686748;85;20932;-68
2021/11/20 08:08:24;;;;;;;12.53;2.72;;;;;;;10.80;95.20;98278.33;1690325;84;20990;-67
2021/11/20 08:10:59;;;;;;;7.97;2.00;;;;;;;10.67;95.66;98280.30;1654093;85;20909;-68
2021/11/20 08:13:32;;;;;;;6.65;2.27;;;;;;;10.60;94.81;98278.72;1677979;84;21043;-69
2021/11/20 08:16:08;;;;;;;4.70;1.45;;;;;;;10.51;94.90;98287.08;1660565;85;20975;-76
2021/11/20 08:18:53;;;;;;;8.28;2.12;;;;;;;10.41;95.12;98286.18;1588367;87;20942;-67
2021/11/20 08:21:22;;;;;;;11.12;2.27;;;;;;;10.37;95.23;98286.67;1654489;86;21562;-67
2021/11/20 08:24:05;;;;;;;9.50;2.42;;;;;;;10.57;92.38;98302.16;1633685;86;21545;-68
2021/11/20 08:26:25;;;;;;;;;;;;;;;10.75;91.44;98309.56;1653006;86;21004;-68
2021/11/20 08:28:55;;;;;;;14.55;2.25;;;;;;;10.82;88.65;98276.84;1655121;86;20467;-68
2021/11/20 08:31:24;;;;;;;4.22;1.65;;;;;;;10.72;89.87;98288.88;1655551;86;21507;-67
2021/11/20 08:34:13;;;;;;;7.10;1.85;;;;;;;10.58;92.42;98301.59;1653025;86;20957;-68
2021/11/20 08:36:51;;;;;;;10.23;2.62;;;;;;;10.46;93.01;98301.61;1636185;86;20917;-67
2021/11/20 08:39:28;;;;;;;7.67;1.95;;;;;;;10.36;94.60;98304.27;1631973;86;21005;-66
2021/11/20 08:41:57;;;;;;;6.12;1.80;;;;;;;10.29;94.43;98302.67;1651945;86;20970;-67
2021/11/20 08:44:26;;;;;;;9.13;2.50;;;;;;;10.30;93.76;98309.77;1654148;86;21017;-67
2021/11/20 08:46:56;;;;;;;5.58;2.00;;;;;;;10.37;95.70;98314.10;1649677;86;21541;-70
2021/11/20 08:49:29;;;;;;;5.70;1.80;;;;;;;10.52;94.06;98314.75;1634325;86;21468;-70
2021/11/20 08:51:59;;;;;;;6.53;1.72;;;;;;;10.95;90.69;98313.30;1627410;88;20923;-68
2021/11/20 08:54:29;;;;;;;12.55;2.80;;;;;;;11.10;91.18;98313.10;1625735;87;21509;-67
2021/11/20 08:56:59;;;;;;;8.83;2.50;;;;;;;11.04;89.03;98324.91;1607009;87;21457;-65
2021/11/20 08:59:30;;;;;;;7.78;2.42;;;;;;;10.88;90.32;98318.58;1630772;87;21072;-67
2021/11/20 09:02:34;;;;;;;5.42;2.08;;;;;;;10.85;91.76;98320.64;1606215;87;21100;-68
2021/11/20 09:05:16;;;;;;;9.90;2.00;;;;;;;10.82;90.95;98326.83;1653597;86;20932;-67
2021/11/20 09:08:03;;;;;;;12.75;3.25;;;;;;;10.75;87.44;98337.59;1654416;85;21173;-70
2021/11/20 09:10:44;;;;;;;8.15;2.10;;;;;;;10.71;85.80;98318.27;1653506;85;21050;-68
2021/11/20 09:13:24;;;;;;;20.37;2.45;;;;;;;10.78;84.67;98303.95;1661868;85;21506;-74
2021/11/20 09:16:05;;;;;;;8.13;2.27;;;;;;;10.94;85.98;98309.52;1658103;86;22301;-71
2021/11/20 09:18:38;;;;;;;9.28;2.55;;;;;;;11.08;84.96;98312.08;1660859;86;21519;-70
2021/11/20 09:21:08;;;;;;;14.20;2.80;;;;;;;11.09;83.23;98310.94;1646231;85;21554;-73
2021/11/20 09:23:37;;;;;;;10.63;1.90;;;;;;;10.94;85.07;98319.93;1677130;83;20924;-68
2021/11/20 09:26:05;;;;;;;6.53;2.00;;;;;;;10.81;86.58;98323.85;1676896;84;21114;-68
2021/11/20 09:28:36;;;;;;;7.08;1.98;;;;;;;10.80;89.08;98329.91;1665919;85;21197;-67
2021/11/20 09:31:09;;;;;;;15.88;3.02;;;;;;;10.79;86.17;98326.14;1671331;85;20928;-68
2021/11/20 09:33:37;;;;;;;9.50;2.98;;;;;;;10.90;88.42;98313.53;1645963;85;20985;-69
2021/11/20 09:36:12;;;;;;;7.20;2.00;;;;;;;11.00;86.34;98311.64;1665173;85;20988;-68
2021/11/20 09:38:47;;;;;;;6.83;2.10;;;;;;;11.21;82.93;98319.70;1665554;84;20975;-67
2021/11/20 09:41:18;;;;;;;6.70;2.05;;;;;;;11.27;84.56;98320.25;1663884;85;20973;-68
2021/11/20 09:43:50;;;;;;;8.85;2.45;;;;;;;11.30;88.21;98336.84;1684597;85;21007;-68
2021/11/20 09:46:29;;;;;;;7.12;2.20;;;;;;;11.24;83.02;98314.88;1683321;85;21543;-67
2021/11/20 09:49:06;;;;;;;10.85;2.60;;;;;;;11.14;85.14;98323.05;1684453;83;21031;-68
2021/11/20 09:51:48;;;;;;;9.68;2.30;;;;;;;11.03;85.88;98316.45;1669437;85;21481;-68
2021/11/20 09:54:36;;;;;;;10.28;2.62;;;;;;;11.08;85.01;98312.08;1659043;86;21250;-67
2021/11/20 09:57:14;;;;;;;8.48;2.27;;;;;;;11.11;84.26;98336.67;1635699;86;21110;-66
2021/11/20 10:00:22;;;;;;;16.85;2.60;;;;;;;11.21;81.96;98328.74;1658860;86;21550;-66
2021/11/20 10:03:11;;;;;;;10.58;2.25;;;;;;;11.17;77.62;98311.36;1659035;86;20889;-67
2021/11/20 10:05:42;;;;;;;6.22;2.10;;;;;;;11.15;79.47;98315.61;1659483;86;20937;-68
2021/11/20 10:08:21;;;;;;;;;;;;;;;11.58;78.45;98309.31;1661680;86;21145;-67
2021/11/20 10:11:02;;;;;;;11.00;2.05;;;;;;;12.14;73.25;98314.69;1621597;88;20133;-67
2021/11/20 10:13:47;;;;;;;9.58;2.98;;;;;;;12.64;73.59;98315.30;1654592;86;20964;-67
2021/11/20 10:16:21;;;;;;;10.45;3.25;;;;;;;13.21;77.36;98309.06;1659161;86;20932;-67
2021/11/20 10:19:07;;;;;;;10.53;2.80;;;;;;;13.81;76.38;98325.15;1638255;86;21876;-66
2021/11/20 10:21:56;;;;;;;13.08;3.00;;;;;;;14.02;73.57;98320.56;1672440;85;21876;-68
2021/11/20 10:24:29;;;;;;;10.95;2.52;;;;;;;13.71;71.23;98322.99;1651893;85;20972;-67
2021/11/20 10:27:32;;;;;;;13.75;2.85;;;;;;;13.16;74.24;98322.33;1592719;84;21142;-65
2021/11/20 10:30:51;;;;;;;11.93;2.77;;;;;;;12.89;75.09;98326.84;1665608;85;20967;-66
2021/11/20 10:33:38;;;;;;;11.22;2.50;;;;;;;12.56;74.91;98332.23;1609201;88;21092;-65
2021/11/20 10:36:22;;;;;;;10.32;2.67;;;;;;;12.23;72.37;98320.80;1657368;86;21187;-65
2021/11/20 10:39:15;;;;;;;13.13;2.37;;;;;;;12.09;77.37;98329.54;1629211;86;20928;-66
2021/11/20 10:42:06;;;;;;;10.55;2.45;;;;;;;12.83;74.56;98335.95;1658169;86;21004;-66
2021/11/20 10:44:46;;;;;;;7.03;2.20;;;;;;;12.83;74.56;98335.95;1655071;86;20932;-66
2021/11/20 10:47:26;;;;;;;10.25;2.77;;;;;;;13.38;68.07;98322.16;1629544;86;20925;-66
2021/11/20 10:50:27;;;;;;;8.73;2.87;;;;;;;13.92;64.70;98338.52;1659626;86;21165;-69
2021/11/20 10:53:19;;;;;;;10.50;2.12;;;;;;;14.32;65.23;98342.17;1659225;85;21599;-64
2021/11/20 10:56:29;;;;;;;7.30;2.25;;;;;;;14.52;59.13;98343.69;1670569;85;20945;-65
2021/11/20 10:59:06;;;;;;;9.78;2.55;;;;;;;14.16;58.55;98357.48;1642226;85;21535;-67
2021/11/20 11:01:58;;;;;;;15.38;3.62;;;;;;;13.91;61.53;98363.72;1662169;84;20964;-71
2021/11/20 11:05:08;;;;;;;10.50;2.50;;;;;;;13.57;63.59;98363.50;1667291;84;21027;-67
2021/11/20 11:08:04;;;;;;;8.83;2.67;;;;;;;13.52;63.00;98356.90;1689114;84;20909;-67
2021/11/20 11:10:46;;;;;;;10.93;3.00;;;;;;;13.24;64.59;98357.72;1680813;85;21000;-68
2021/11/20 11:13:58;;;;;;;8.73;2.77;;;;;;;12.82;68.89;98351.46;1687876;84;21039;-66
2021/11/20 11:16:40;;;;;;;13.10;3.17;;;;;;;12.90;63.14;98351.84;1683458;85;20941;-69
2021/11/20 11:19:43;;;;;;;10.78;2.15;;;;;;;13.36;65.39;98356.97;1687625;84;21409;-66
2021/11/20 11:22:37;;;;;;;7.25;2.22;;;;;;;13.81;60.57;98355.48;1687802;84;20873;-65
2021/11/20 11:25:26;;;;;;;17.85;2.70;;;;;;;14.32;55.73;98357.36;1687691;85;20980;-64
2021/11/20 13:01:59;;;;;;;15.05;2.95;;;;;;;12.94;50.75;98471.75;1726340;81;21506;-64
2021/11/20 13:04:44;;;;;;;;;;;;;;;13.09;50.67;98475.06;1725693;81;20962;-66
2021/11/20 13:07:18;;;;;;;12.78;3.12;;;;;;;13.19;47.97;98475.92;1727522;82;20144;-66
2021/11/20 13:10:07;;;;;;;11.88;3.08;;;;;;;13.12;49.23;98472.39;1722306;83;21183;-66
2021/11/20 13:12:45;;;;;;;12.23;3.58;;;;;;;12.82;49.73;98481.70;1725274;83;21014;-66
2021/11/20 13:15:38;;;;;;;12.70;3.37;;;;;;;12.25;48.72;98490.47;1717098;81;21149;-65
2021/11/20 13:18:25;;;;;;;16.20;4.50;;;;;;;11.77;50.33;98486.80;1670226;83;21070;-64
2021/11/20 13:21:00;;;;;;;23.05;4.70;;;;;;;11.40;52.57;98499.84;1694235;83;21006;-66
2021/11/20 13:23:30;;;;;;;11.35;2.80;;;;;;;11.16;53.33;98491.05;1695428;84;21151;-66
2021/11/20 13:26:07;;;;;;;10.80;4.58;;;;;;;10.98;53.87;98514.97;1703445;83;20900;-66
2021/11/20 13:28:44;;;;;;;12.25;3.52;;;;;;;10.80;55.38;98519.34;1734647;82;20900;-67
2021/11/20 13:31:12;;;;;;;18.00;3.77;;;;;;;10.64;56.25;98505.25;1711001;82;20944;-66
2021/11/20 13:33:45;;;;;;;10.75;2.95;;;;;;;10.51;56.48;98511.28;1695004;83;20951;-66
2021/11/20 13:36:12;;;;;;;18.20;3.33;;;;;;;10.44;58.08;98509.09;1723218;82;21109;-65
2021/11/20 13:38:38;;;;;;;14.25;3.83;;;;;;;10.36;57.38;98515.51;1736300;82;20935;-69
2021/11/20 13:41:05;;;;;;;14.47;3.75;;;;;;;10.25;55.93;98504.73;1703023;81;21518;-66
2021/11/20 13:43:40;;;;;;;10.23;2.55;;;;;;;10.18;57.33;98523.08;1686177;82;21051;-66
2021/11/20 13:46:12;;;;;;;12.58;3.30;;;;;;;10.11;56.52;98530.25;1699888;83;21010;-65
2021/11/20 13:48:39;;;;;;;20.23;2.83;;;;;;;10.05;57.81;98537.08;1713691;82;21101;-72